sensor_id;sensor_type;location;lat;lon;timestamp;pressure;altitude;pressure_sealevel;temperature;humidity
71915;BME280;60387;49.994;14.660;2023-05-20T00:00:18;98269.63;;;14.42;61.90
71915;BME280;60387;49.994;14.660;2023-05-20T00:02:52;98255.06;;;14.47;60.93
71915;BME280;60387;49.994;14.660;2023-05-20T00:05:25;98263.75;;;14.49;61.02
71915;BME280;60387;49.994;14.660;2023-05-20T00:07:58;98262.94;;;14.48;61.19
71915;BME280;60387;49.994;14.660;2023-05-20T00:10:32;98270.63;;;14.46;61.70
71915;BME280;60387;49.994;14.660;2023-05-20T00:13:05;98275.28;;;14.46;60.87
71915;BME280;60387;49.994;14.660;2023-05-20T00:15:39;98272.88;;;14.44;61.08
71915;BME280;60387;49.994;14.660;2023-05-20T00:18:12;98275.09;;;14.42;61.01
71915;BME280;60387;49.994;14.660;2023-05-20T00:20:46;98276.03;;;14.38;60.86
71915;BME280;60387;49.994;14.660;2023-05-20T00:23:19;98263.50;;;14.37;61.50
71915;BME280;60387;49.994;14.660;2023-05-20T00:25:52;98265.44;;;14.36;61.70
71915;BME280;60387;49.994;14.660;2023-05-20T00:28:25;98261.91;;;14.36;61.58
71915;BME280;60387;49.994;14.660;2023-05-20T00:30:59;98269.63;;;14.42;61.57
71915;BME280;60387;49.994;14.660;2023-05-20T00:33:32;98275.25;;;14.37;62.16
71915;BME280;60387;49.994;14.660;2023-05-20T00:36:05;98270.91;;;14.36;61.33
71915;BME280;60387;49.994;14.660;2023-05-20T00:38:39;98277.50;;;14.44;60.83
71915;BME280;60387;49.994;14.660;2023-05-20T00:41:12;98258.25;;;14.40;61.73
71915;BME280;60387;49.994;14.660;2023-05-20T00:43:45;98256.53;;;14.44;61.83
71915;BME280;60387;49.994;14.660;2023-05-20T00:46:19;98257.38;;;14.53;61.53
71915;BME280;60387;49.994;14.660;2023-05-20T00:48:52;98259.84;;;14.41;61.93
71915;BME280;60387;49.994;14.660;2023-05-20T00:51:26;98247.03;;;14.42;61.93
71915;BME280;60387;49.994;14.660;2023-05-20T00:53:59;98245.47;;;14.49;61.53
71915;BME280;60387;49.994;14.660;2023-05-20T00:56:33;98254.13;;;14.51;61.57
71915;BME280;60387;49.994;14.660;2023-05-20T00:59:06;98252.25;;;14.60;60.98
71915;BME280;60387;49.994;14.660;2023-05-20T01:01:40;98250.16;;;14.57;60.89
71915;BME280;60387;49.994;14.660;2023-05-20T01:04:16;98243.28;;;14.60;61.37
71915;BME280;60387;49.994;14.660;2023-05-20T01:06:49;98245.84;;;14.65;60.93
71915;BME280;60387;49.994;14.660;2023-05-20T01:09:23;98240.84;;;14.58;60.72
71915;BME280;60387;49.994;14.660;2023-05-20T01:14:36;98240.06;;;14.58;60.87
71915;BME280;60387;49.994;14.660;2023-05-20T01:17:13;98251.75;;;14.50;61.26
71915;BME280;60387;49.994;14.660;2023-05-20T01:19:47;98242.88;;;14.44;61.28
71915;BME280;60387;49.994;14.660;2023-05-20T01:22:30;98230.88;;;14.45;61.21
71915;BME280;60387;49.994;14.660;2023-05-20T01:25:03;98226.66;;;14.39;61.84
71915;BME280;60387;49.994;14.660;2023-05-20T01:27:37;98223.81;;;14.44;61.49
71915;BME280;60387;49.994;14.660;2023-05-20T01:30:11;98218.34;;;14.44;61.84
71915;BME280;60387;49.994;14.660;2023-05-20T01:32:50;98215.09;;;14.34;61.55
71915;BME280;60387;49.994;14.660;2023-05-20T01:35:24;98210.59;;;14.29;62.02
71915;BME280;60387;49.994;14.660;2023-05-20T01:37:58;98223.16;;;14.47;60.97
71915;BME280;60387;49.994;14.660;2023-05-20T01:40:33;98207.47;;;14.44;61.52
71915;BME280;60387;49.994;14.660;2023-05-20T01:43:07;98209.19;;;14.40;61.32
71915;BME280;60387;49.994;14.660;2023-05-20T01:45:41;98217.25;;;14.45;61.05
71915;BME280;60387;49.994;14.660;2023-05-20T01:48:14;98193.09;;;14.30;61.49
71915;BME280;60387;49.994;14.660;2023-05-20T01:50:47;98215.75;;;14.39;60.91
71915;BME280;60387;49.994;14.660;2023-05-20T01:53:20;98204.88;;;14.48;60.51
71915;BME280;60387;49.994;14.660;2023-05-20T01:55:54;98214.22;;;14.55;60.22
71915;BME280;60387;49.994;14.660;2023-05-20T01:58:27;98207.00;;;14.51;61.04
71915;BME280;60387;49.994;14.660;2023-05-20T02:01:00;98191.88;;;14.45;61.05
71915;BME280;60387;49.994;14.660;2023-05-20T02:03:34;98203.53;;;14.28;62.13
71915;BME280;60387;49.994;14.660;2023-05-20T02:06:07;98202.41;;;14.29;61.78
71915;BME280;60387;49.994;14.660;2023-05-20T02:08:40;98209.31;;;14.35;61.55
71915;BME280;60387;49.994;14.660;2023-05-20T02:11:14;98202.88;;;14.31;61.88
71915;BME280;60387;49.994;14.660;2023-05-20T02:13:48;98197.44;;;14.31;61.46
71915;BME280;60387;49.994;14.660;2023-05-20T02:16:22;98223.66;;;14.19;62.91
71915;BME280;60387;49.994;14.660;2023-05-20T02:18:55;98205.97;;;14.16;63.01
71915;BME280;60387;49.994;14.660;2023-05-20T02:21:28;98210.72;;;14.02;62.19
71915;BME280;60387;49.994;14.660;2023-05-20T02:24:02;98220.13;;;13.96;62.83
71915;BME280;60387;49.994;14.660;2023-05-20T02:26:35;98208.22;;;14.14;62.01
71915;BME280;60387;49.994;14.660;2023-05-20T02:29:08;98203.25;;;14.16;62.19
71915;BME280;60387;49.994;14.660;2023-05-20T02:31:41;98201.66;;;14.15;62.34
71915;BME280;60387;49.994;14.660;2023-05-20T02:34:16;98198.31;;;14.18;61.83
71915;BME280;60387;49.994;14.660;2023-05-20T02:36:50;98202.88;;;14.09;62.00
71915;BME280;60387;49.994;14.660;2023-05-20T02:39:24;98203.22;;;14.08;62.15
71915;BME280;60387;49.994;14.660;2023-05-20T02:41:57;98207.00;;;14.20;61.24
71915;BME280;60387;49.994;14.660;2023-05-20T02:44:30;98192.88;;;14.18;61.62
71915;BME280;60387;49.994;14.660;2023-05-20T02:47:03;98188.03;;;14.15;61.72
71915;BME280;60387;49.994;14.660;2023-05-20T02:49:37;98200.34;;;14.13;61.58
71915;BME280;60387;49.994;14.660;2023-05-20T02:52:10;98202.97;;;14.18;61.59
71915;BME280;60387;49.994;14.660;2023-05-20T02:54:43;98203.78;;;14.18;61.24
71915;BME280;60387;49.994;14.660;2023-05-20T02:57:17;98197.13;;;14.11;62.61
71915;BME280;60387;49.994;14.660;2023-05-20T02:59:50;98191.25;;;14.17;61.23
71915;BME280;60387;49.994;14.660;2023-05-20T03:02:23;98189.59;;;14.08;61.22
71915;BME280;60387;49.994;14.660;2023-05-20T03:04:57;98179.63;;;14.03;61.86
71915;BME280;60387;49.994;14.660;2023-05-20T03:07:33;98195.22;;;14.11;61.50
71915;BME280;60387;49.994;14.660;2023-05-20T03:10:07;98187.06;;;14.11;61.78
71915;BME280;60387;49.994;14.660;2023-05-20T03:12:40;98199.56;;;14.12;61.50
71915;BME280;60387;49.994;14.660;2023-05-20T03:15:13;98184.19;;;14.16;61.63
71915;BME280;60387;49.994;14.660;2023-05-20T03:17:47;98185.81;;;14.17;61.19
71915;BME280;60387;49.994;14.660;2023-05-20T03:20:20;98190.66;;;14.20;60.98
71915;BME280;60387;49.994;14.660;2023-05-20T03:22:54;98186.00;;;14.21;61.26
71915;BME280;60387;49.994;14.660;2023-05-20T03:25:27;98200.91;;;14.23;60.97
71915;BME280;60387;49.994;14.660;2023-05-20T03:28:01;98195.97;;;14.25;60.82
71915;BME280;60387;49.994;14.660;2023-05-20T03:30:34;98186.19;;;14.24;60.83
71915;BME280;60387;49.994;14.660;2023-05-20T03:33:07;98206.69;;;14.22;61.03
71915;BME280;60387;49.994;14.660;2023-05-20T03:35:42;98193.41;;;14.29;61.38
71915;BME280;60387;49.994;14.660;2023-05-20T03:38:16;98201.91;;;14.27;62.09
71915;BME280;60387;49.994;14.660;2023-05-20T03:40:49;98197.25;;;14.28;61.03
71915;BME280;60387;49.994;14.660;2023-05-20T03:43:22;98194.22;;;14.29;60.99
71915;BME280;60387;49.994;14.660;2023-05-20T03:45:56;98216.69;;;14.13;62.04
71915;BME280;60387;49.994;14.660;2023-05-20T03:48:29;98203.16;;;14.21;62.03
71915;BME280;60387;49.994;14.660;2023-05-20T03:51:02;98203.16;;;14.21;62.36
71915;BME280;60387;49.994;14.660;2023-05-20T03:53:36;98194.84;;;14.26;62.06
71915;BME280;60387;49.994;14.660;2023-05-20T03:56:09;98187.84;;;14.12;62.15
71915;BME280;60387;49.994;14.660;2023-05-20T03:58:42;98194.72;;;14.09;62.85
71915;BME280;60387;49.994;14.660;2023-05-20T04:01:15;98195.06;;;14.16;62.29
71915;BME280;60387;49.994;14.660;2023-05-20T04:03:49;98197.13;;;14.11;62.02
71915;BME280;60387;49.994;14.660;2023-05-20T04:06:22;98191.34;;;14.34;61.55
71915;BME280;60387;49.994;14.660;2023-05-20T04:08:55;98202.03;;;14.53;61.13
71915;BME280;60387;49.994;14.660;2023-05-20T04:11:29;98215.56;;;14.66;61.06
71915;BME280;60387;49.994;14.660;2023-05-20T04:14:02;98212.41;;;14.81;60.47
71915;BME280;60387;49.994;14.660;2023-05-20T04:16:36;98204.63;;;15.22;60.20
71915;BME280;60387;49.994;14.660;2023-05-20T04:19:09;98209.19;;;15.69;59.84
71915;BME280;60387;49.994;14.660;2023-05-20T04:21:42;98211.69;;;16.25;58.93
71915;BME280;60387;49.994;14.660;2023-05-20T04:24:16;98206.22;;;16.71;58.28
71915;BME280;60387;49.994;14.660;2023-05-20T04:26:50;98184.63;;;17.07;57.56
71915;BME280;60387;49.994;14.660;2023-05-20T04:29:23;98201.22;;;17.60;57.04
71915;BME280;60387;49.994;14.660;2023-05-20T04:31:57;98200.91;;;17.94;56.74
71915;BME280;60387;49.994;14.660;2023-05-20T04:34:30;98200.56;;;18.28;56.36
71915;BME280;60387;49.994;14.660;2023-05-20T04:37:03;98188.75;;;18.60;55.75
71915;BME280;60387;49.994;14.660;2023-05-20T04:39:36;98202.47;;;18.96;54.83
71915;BME280;60387;49.994;14.660;2023-05-20T04:42:10;98204.56;;;19.23;55.14
71915;BME280;60387;49.994;14.660;2023-05-20T04:44:43;98200.66;;;19.48;54.72
71915;BME280;60387;49.994;14.660;2023-05-20T04:47:16;98200.22;;;19.73;54.66
71915;BME280;60387;49.994;14.660;2023-05-20T04:49:50;98205.19;;;19.95;54.30
71915;BME280;60387;49.994;14.660;2023-05-20T04:52:23;98206.06;;;20.11;53.67
71915;BME280;60387;49.994;14.660;2023-05-20T04:54:56;98206.44;;;20.25;53.88
71915;BME280;60387;49.994;14.660;2023-05-20T04:57:30;98198.72;;;20.30;52.01
71915;BME280;60387;49.994;14.660;2023-05-20T05:00:04;98193.50;;;20.25;52.21
71915;BME280;60387;49.994;14.660;2023-05-20T05:02:38;98188.84;;;20.14;51.83
71915;BME280;60387;49.994;14.660;2023-05-20T05:05:11;98203.91;;;20.04;51.27
71915;BME280;60387;49.994;14.660;2023-05-20T05:07:44;98196.56;;;19.96;50.38
71915;BME280;60387;49.994;14.660;2023-05-20T05:10:18;98194.44;;;19.90;51.31
71915;BME280;60387;49.994;14.660;2023-05-20T05:12:51;98195.69;;;19.92;51.71
71915;BME280;60387;49.994;14.660;2023-05-20T05:15:24;98189.69;;;20.02;51.39
71915;BME280;60387;49.994;14.660;2023-05-20T05:17:58;98192.38;;;20.14;51.70
71915;BME280;60387;49.994;14.660;2023-05-20T05:20:31;98187.81;;;20.18;50.73
71915;BME280;60387;49.994;14.660;2023-05-20T05:23:04;98183.78;;;20.16;50.72
71915;BME280;60387;49.994;14.660;2023-05-20T05:25:37;98186.44;;;20.12;49.33
71915;BME280;60387;49.994;14.660;2023-05-20T05:28:11;98180.25;;;20.15;50.13
71915;BME280;60387;49.994;14.660;2023-05-20T05:30:44;98184.25;;;20.18;50.02
71915;BME280;60387;49.994;14.660;2023-05-20T05:33:17;98190.22;;;20.20;50.19
71915;BME280;60387;49.994;14.660;2023-05-20T05:35:50;98188.69;;;20.22;48.66
71915;BME280;60387;49.994;14.660;2023-05-20T05:38:24;98185.00;;;20.03;48.30
71915;BME280;60387;49.994;14.660;2023-05-20T05:40:57;98187.41;;;19.77;48.20
71915;BME280;60387;49.994;14.660;2023-05-20T05:43:30;98199.94;;;19.51;49.02
71915;BME280;60387;49.994;14.660;2023-05-20T05:46:03;98186.41;;;19.58;49.33
71915;BME280;60387;49.994;14.660;2023-05-20T05:48:37;98183.19;;;19.68;49.12
71915;BME280;60387;49.994;14.660;2023-05-20T05:51:10;98192.84;;;19.89;49.31
71915;BME280;60387;49.994;14.660;2023-05-20T05:53:43;98186.34;;;19.82;48.77
71915;BME280;60387;49.994;14.660;2023-05-20T05:56:17;98181.75;;;19.46;48.94
71915;BME280;60387;49.994;14.660;2023-05-20T05:58:50;98183.69;;;19.46;48.51
71915;BME280;60387;49.994;14.660;2023-05-20T06:01:23;98191.03;;;19.42;49.72
71915;BME280;60387;49.994;14.660;2023-05-20T06:03:56;98182.59;;;19.23;49.55
71915;BME280;60387;49.994;14.660;2023-05-20T06:06:30;98197.22;;;19.15;50.05
71915;BME280;60387;49.994;14.660;2023-05-20T06:09:03;98208.66;;;18.93;49.67
71915;BME280;60387;49.994;14.660;2023-05-20T06:11:37;98207.97;;;18.84;49.94
71915;BME280;60387;49.994;14.660;2023-05-20T06:14:10;98216.91;;;18.81;50.23
71915;BME280;60387;49.994;14.660;2023-05-20T06:16:43;98213.94;;;18.86;50.50
71915;BME280;60387;49.994;14.660;2023-05-20T06:19:16;98213.72;;;18.91;50.46
71915;BME280;60387;49.994;14.660;2023-05-20T06:21:50;98214.97;;;19.05;50.50
71915;BME280;60387;49.994;14.660;2023-05-20T06:24:23;98213.97;;;19.22;50.24
71915;BME280;60387;49.994;14.660;2023-05-20T06:26:56;98214.06;;;19.25;50.12
71915;BME280;60387;49.994;14.660;2023-05-20T06:29:29;98204.44;;;19.31;49.90
71915;BME280;60387;49.994;14.660;2023-05-20T06:32:03;98219.88;;;19.36;49.88
71915;BME280;60387;49.994;14.660;2023-05-20T06:34:36;98213.13;;;19.45;50.41
71915;BME280;60387;49.994;14.660;2023-05-20T06:37:10;98205.88;;;19.65;49.86
71915;BME280;60387;49.994;14.660;2023-05-20T06:39:43;98212.88;;;19.89;49.74
71915;BME280;60387;49.994;14.660;2023-05-20T06:42:16;98206.00;;;20.23;48.85
71915;BME280;60387;49.994;14.660;2023-05-20T06:44:49;98199.66;;;20.50;48.45
71915;BME280;60387;49.994;14.660;2023-05-20T06:47:23;98203.31;;;20.69;48.54
71915;BME280;60387;49.994;14.660;2023-05-20T06:49:56;98198.53;;;20.82;48.26
71915;BME280;60387;49.994;14.660;2023-05-20T06:52:29;98202.28;;;20.89;47.08
71915;BME280;60387;49.994;14.660;2023-05-20T06:55:04;98199.06;;;21.03;47.39
71915;BME280;60387;49.994;14.660;2023-05-20T06:57:37;98187.22;;;21.18;47.95
71915;BME280;60387;49.994;14.660;2023-05-20T07:00:11;98189.81;;;21.26;46.59
71915;BME280;60387;49.994;14.660;2023-05-20T07:02:44;98188.56;;;21.24;47.31
71915;BME280;60387;49.994;14.660;2023-05-20T07:05:18;98191.94;;;21.02;46.82
71915;BME280;60387;49.994;14.660;2023-05-20T07:07:51;98187.84;;;20.96;47.35
71915;BME280;60387;49.994;14.660;2023-05-20T07:10:24;98189.66;;;20.88;47.15
71915;BME280;60387;49.994;14.660;2023-05-20T07:12:57;98171.41;;;20.84;47.72
71915;BME280;60387;49.994;14.660;2023-05-20T07:15:31;98177.75;;;21.00;47.71
71915;BME280;60387;49.994;14.660;2023-05-20T07:18:04;98180.50;;;21.34;47.80
71915;BME280;60387;49.994;14.660;2023-05-20T07:20:37;98173.16;;;21.57;47.06
71915;BME280;60387;49.994;14.660;2023-05-20T07:23:10;98182.78;;;21.82;46.62
71915;BME280;60387;49.994;14.660;2023-05-20T07:25:44;98178.56;;;22.07;45.88
71915;BME280;60387;49.994;14.660;2023-05-20T07:28:19;98176.16;;;22.25;45.05
71915;BME280;60387;49.994;14.660;2023-05-20T07:30:52;98159.16;;;22.42;45.39
71915;BME280;60387;49.994;14.660;2023-05-20T07:33:26;98162.63;;;22.61;45.04
71915;BME280;60387;49.994;14.660;2023-05-20T07:35:59;98166.13;;;22.81;44.86
71915;BME280;60387;49.994;14.660;2023-05-20T07:38:32;98152.13;;;22.93;43.70
71915;BME280;60387;49.994;14.660;2023-05-20T07:41:06;98151.31;;;22.92;44.02
71915;BME280;60387;49.994;14.660;2023-05-20T07:43:39;98153.69;;;23.16;44.19
71915;BME280;60387;49.994;14.660;2023-05-20T07:46:12;98143.16;;;23.25;43.82
71915;BME280;60387;49.994;14.660;2023-05-20T07:48:45;98149.31;;;23.41;43.88
71915;BME280;60387;49.994;14.660;2023-05-20T07:51:19;98153.13;;;23.59;44.24
71915;BME280;60387;49.994;14.660;2023-05-20T07:53:52;98143.50;;;23.79;45.28
71915;BME280;60387;49.994;14.660;2023-05-20T07:56:25;98152.25;;;24.14;44.67
71915;BME280;60387;49.994;14.660;2023-05-20T07:58:59;98150.25;;;24.51;43.69
71915;BME280;60387;49.994;14.660;2023-05-20T08:01:33;98153.31;;;24.79;42.28
71915;BME280;60387;49.994;14.660;2023-05-20T08:04:06;98149.84;;;24.92;41.17
71915;BME280;60387;49.994;14.660;2023-05-20T08:06:39;98151.16;;;25.09;42.24
71915;BME280;60387;49.994;14.660;2023-05-20T08:09:12;98149.72;;;25.22;41.47
71915;BME280;60387;49.994;14.660;2023-05-20T08:11:46;98153.69;;;25.24;40.24
71915;BME280;60387;49.994;14.660;2023-05-20T08:14:19;98137.47;;;25.26;41.97
71915;BME280;60387;49.994;14.660;2023-05-20T08:16:52;98154.66;;;25.49;42.04
71915;BME280;60387;49.994;14.660;2023-05-20T08:19:26;98135.38;;;25.81;40.42
71915;BME280;60387;49.994;14.660;2023-05-20T08:21:59;98140.25;;;26.15;39.61
71915;BME280;60387;49.994;14.660;2023-05-20T08:24:32;98144.72;;;26.41;39.31
71915;BME280;60387;49.994;14.660;2023-05-20T08:27:05;98143.16;;;26.61;38.34
71915;BME280;60387;49.994;14.660;2023-05-20T08:29:39;98136.44;;;26.69;38.29
71915;BME280;60387;49.994;14.660;2023-05-20T08:32:12;98134.84;;;26.89;38.03
71915;BME280;60387;49.994;14.660;2023-05-20T08:34:45;98132.44;;;27.05;39.01
71915;BME280;60387;49.994;14.660;2023-05-20T08:37:18;98137.22;;;27.25;38.47
71915;BME280;60387;49.994;14.660;2023-05-20T08:39:52;98136.44;;;27.18;37.93
71915;BME280;60387;49.994;14.660;2023-05-20T08:42:25;98142.78;;;27.18;37.49
71915;BME280;60387;49.994;14.660;2023-05-20T08:44:59;98126.09;;;27.25;36.89
71915;BME280;60387;49.994;14.660;2023-05-20T08:47:33;98132.47;;;27.26;36.33
71915;BME280;60387;49.994;14.660;2023-05-20T08:50:06;98138.00;;;27.12;37.22
71915;BME280;60387;49.994;14.660;2023-05-20T08:52:45;98136.03;;;27.02;36.45
71915;BME280;60387;49.994;14.660;2023-05-20T08:55:42;98126.50;;;27.03;37.51
71915;BME280;60387;49.994;14.660;2023-05-20T08:58:18;98128.06;;;27.11;37.29
71915;BME280;60387;49.994;14.660;2023-05-20T09:00:51;98123.72;;;26.96;38.27
71915;BME280;60387;49.994;14.660;2023-05-20T09:03:24;98130.06;;;27.14;37.68
71915;BME280;60387;49.994;14.660;2023-05-20T09:06:06;98134.03;;;27.37;38.28
71915;BME280;60387;49.994;14.660;2023-05-20T09:08:40;98127.25;;;27.48;37.39
71915;BME280;60387;49.994;14.660;2023-05-20T09:11:13;98116.53;;;27.40;37.32
71915;BME280;60387;49.994;14.660;2023-05-20T09:13:48;98118.09;;;27.51;37.39
71915;BME280;60387;49.994;14.660;2023-05-20T09:16:21;98131.56;;;27.63;36.73
71915;BME280;60387;49.994;14.660;2023-05-20T09:18:55;98126.00;;;27.63;35.79
71915;BME280;60387;49.994;14.660;2023-05-20T09:21:29;98131.53;;;27.81;36.37
71915;BME280;60387;49.994;14.660;2023-05-20T09:24:02;98119.94;;;27.89;36.36
71915;BME280;60387;49.994;14.660;2023-05-20T09:26:35;98112.69;;;28.09;36.64
71915;BME280;60387;49.994;14.660;2023-05-20T09:29:08;98132.91;;;28.27;35.33
71915;BME280;60387;49.994;14.660;2023-05-20T09:31:42;98125.25;;;28.42;34.82
71915;BME280;60387;49.994;14.660;2023-05-20T09:34:16;98119.34;;;28.36;34.96
71915;BME280;60387;49.994;14.660;2023-05-20T09:36:49;98122.88;;;28.40;35.09
71915;BME280;60387;49.994;14.660;2023-05-20T09:39:24;98114.81;;;28.53;35.34
71915;BME280;60387;49.994;14.660;2023-05-20T09:42:21;98114.44;;;28.54;35.72
71915;BME280;60387;49.994;14.660;2023-05-20T09:44:56;98111.91;;;28.70;35.31
71915;BME280;60387;49.994;14.660;2023-05-20T09:47:31;98119.31;;;28.91;35.21
71915;BME280;60387;49.994;14.660;2023-05-20T09:50:06;98116.28;;;29.19;35.21
71915;BME280;60387;49.994;14.660;2023-05-20T09:52:40;98124.63;;;29.22;34.61
71915;BME280;60387;49.994;14.660;2023-05-20T09:55:18;98121.94;;;29.12;34.72
71915;BME280;60387;49.994;14.660;2023-05-20T09:57:52;98130.31;;;29.12;35.30
71915;BME280;60387;49.994;14.660;2023-05-20T10:00:26;98109.91;;;29.18;34.85
71915;BME280;60387;49.994;14.660;2023-05-20T10:02:59;98115.06;;;29.23;34.76
71915;BME280;60387;49.994;14.660;2023-05-20T10:05:39;98113.91;;;29.17;34.89
71915;BME280;60387;49.994;14.660;2023-05-20T10:11:18;98104.31;;;29.18;35.41
71915;BME280;60387;49.994;14.660;2023-05-20T10:20:00;98080.31;;;28.33;35.54
71915;BME280;60387;49.994;14.660;2023-05-20T10:22:33;98078.13;;;27.96;36.06
71915;BME280;60387;49.994;14.660;2023-05-20T10:25:11;98090.97;;;27.73;36.65
71915;BME280;60387;49.994;14.660;2023-05-20T10:27:46;98096.94;;;27.68;37.16
71915;BME280;60387;49.994;14.660;2023-05-20T10:30:21;98090.53;;;27.85;37.20
71915;BME280;60387;49.994;14.660;2023-05-20T10:32:57;98085.84;;;27.61;36.78
71915;BME280;60387;49.994;14.660;2023-05-20T10:35:30;98077.91;;;27.59;36.83
71915;BME280;60387;49.994;14.660;2023-05-20T10:38:11;98085.50;;;27.41;38.07
71915;BME280;60387;49.994;14.660;2023-05-20T10:40:44;98079.59;;;27.26;38.36
71915;BME280;60387;49.994;14.660;2023-05-20T10:43:25;98107.03;;;27.17;38.43
71915;BME280;60387;49.994;14.660;2023-05-20T10:45:59;98076.03;;;27.18;38.29
71915;BME280;60387;49.994;14.660;2023-05-20T10:48:32;98064.88;;;27.22;38.01
71915;BME280;60387;49.994;14.660;2023-05-20T10:51:12;98074.41;;;27.31;38.51
71915;BME280;60387;49.994;14.660;2023-05-20T10:53:46;98071.09;;;27.71;38.28
71915;BME280;60387;49.994;14.660;2023-05-20T10:56:25;98055.94;;;27.82;37.90
71915;BME280;60387;49.994;14.660;2023-05-20T10:59:00;98049.81;;;28.08;37.29
71915;BME280;60387;49.994;14.660;2023-05-20T11:01:33;98055.41;;;28.08;36.77
71915;BME280;60387;49.994;14.660;2023-05-20T11:04:07;98045.53;;;27.93;37.09
71915;BME280;60387;49.994;14.660;2023-05-20T11:06:51;98051.81;;;28.04;37.25
71915;BME280;60387;49.994;14.660;2023-05-20T11:09:25;98053.31;;;28.19;37.14
71915;BME280;60387;49.994;14.660;2023-05-20T11:11:58;98040.84;;;28.41;37.20
71915;BME280;60387;49.994;14.660;2023-05-20T11:14:31;98048.47;;;28.34;36.71
71915;BME280;60387;49.994;14.660;2023-05-20T11:17:06;98037.63;;;28.46;36.66
71915;BME280;60387;49.994;14.660;2023-05-20T11:19:40;98054.25;;;28.60;36.22
71915;BME280;60387;49.994;14.660;2023-05-20T11:22:13;98055.31;;;28.73;36.39
71915;BME280;60387;49.994;14.660;2023-05-20T11:24:47;98039.41;;;28.70;36.28
71915;BME280;60387;49.994;14.660;2023-05-20T11:27:20;98039.09;;;28.61;36.78
71915;BME280;60387;49.994;14.660;2023-05-20T11:29:54;98032.13;;;28.80;36.83
71915;BME280;60387;49.994;14.660;2023-05-20T11:32:27;98039.53;;;29.00;36.14
71915;BME280;60387;49.994;14.660;2023-05-20T11:35:00;98044.28;;;29.07;35.88
71915;BME280;60387;49.994;14.660;2023-05-20T11:37:35;98044.47;;;28.82;35.86
71915;BME280;60387;49.994;14.660;2023-05-20T11:40:09;98031.78;;;28.74;35.47
71915;BME280;60387;49.994;14.660;2023-05-20T11:42:44;98022.66;;;28.74;35.74
71915;BME280;60387;49.994;14.660;2023-05-20T11:45:17;98025.88;;;28.69;36.11
71915;BME280;60387;49.994;14.660;2023-05-20T11:48:04;98028.53;;;28.83;35.34
71915;BME280;60387;49.994;14.660;2023-05-20T11:50:39;98026.72;;;28.66;36.19
71915;BME280;60387;49.994;14.660;2023-05-20T11:53:17;98019.53;;;28.68;36.26
71915;BME280;60387;49.994;14.660;2023-05-20T11:55:55;98026.78;;;28.55;36.69
71915;BME280;60387;49.994;14.660;2023-05-20T11:58:29;98021.19;;;28.59;36.49
71915;BME280;60387;49.994;14.660;2023-05-20T12:01:03;98009.97;;;28.66;36.26
71915;BME280;60387;49.994;14.660;2023-05-20T12:03:36;98008.06;;;28.59;36.92
71915;BME280;60387;49.994;14.660;2023-05-20T12:06:10;97996.09;;;28.59;36.01
71915;BME280;60387;49.994;14.660;2023-05-20T12:08:44;98008.69;;;28.77;35.89
71915;BME280;60387;49.994;14.660;2023-05-20T12:11:17;98012.88;;;28.96;36.03
71915;BME280;60387;49.994;14.660;2023-05-20T12:13:51;98007.19;;;29.06;35.52
71915;BME280;60387;49.994;14.660;2023-05-20T12:16:24;97987.13;;;29.18;36.03
71915;BME280;60387;49.994;14.660;2023-05-20T12:18:57;97991.91;;;29.18;35.81
71915;BME280;60387;49.994;14.660;2023-05-20T12:21:31;97994.78;;;29.44;35.90
71915;BME280;60387;49.994;14.660;2023-05-20T12:24:04;97989.03;;;29.58;35.46
71915;BME280;60387;49.994;14.660;2023-05-20T12:26:37;98007.97;;;29.74;34.74
71915;BME280;60387;49.994;14.660;2023-05-20T12:29:11;98000.25;;;29.85;34.29
71915;BME280;60387;49.994;14.660;2023-05-20T12:31:45;98002.91;;;29.95;34.79
71915;BME280;60387;49.994;14.660;2023-05-20T12:34:18;97988.94;;;29.65;34.40
71915;BME280;60387;49.994;14.660;2023-05-20T12:36:52;98009.19;;;29.39;34.53
71915;BME280;60387;49.994;14.660;2023-05-20T12:39:25;97959.50;;;28.94;35.04
71915;BME280;60387;49.994;14.660;2023-05-20T12:41:58;97991.63;;;29.09;35.22
71915;BME280;60387;49.994;14.660;2023-05-20T12:44:31;97999.25;;;29.01;35.49
71915;BME280;60387;49.994;14.660;2023-05-20T12:47:05;97987.69;;;29.03;35.71
71915;BME280;60387;49.994;14.660;2023-05-20T12:49:38;97985.41;;;29.28;35.27
71915;BME280;60387;49.994;14.660;2023-05-20T12:52:11;97966.47;;;29.12;34.86
71915;BME280;60387;49.994;14.660;2023-05-20T12:54:44;97965.78;;;29.01;35.21
71915;BME280;60387;49.994;14.660;2023-05-20T12:57:18;97977.00;;;28.98;35.84
71915;BME280;60387;49.994;14.660;2023-05-20T12:59:51;97964.25;;;28.97;35.17
71915;BME280;60387;49.994;14.660;2023-05-20T13:02:24;97959.28;;;29.15;35.24
71915;BME280;60387;49.994;14.660;2023-05-20T13:04:58;97964.38;;;29.20;35.68
71915;BME280;60387;49.994;14.660;2023-05-20T13:07:31;97961.38;;;29.04;35.16
71915;BME280;60387;49.994;14.660;2023-05-20T13:10:05;97957.13;;;28.92;34.87
71915;BME280;60387;49.994;14.660;2023-05-20T13:12:39;97960.38;;;28.84;34.23
71915;BME280;60387;49.994;14.660;2023-05-20T13:15:12;97963.09;;;28.94;35.23
71915;BME280;60387;49.994;14.660;2023-05-20T13:17:46;97951.44;;;29.03;34.16
71915;BME280;60387;49.994;14.660;2023-05-20T13:20:19;97946.94;;;29.12;33.92
71915;BME280;60387;49.994;14.660;2023-05-20T13:22:52;97967.09;;;28.90;34.97
71915;BME280;60387;49.994;14.660;2023-05-20T13:25:25;97957.19;;;28.85;35.06
71915;BME280;60387;49.994;14.660;2023-05-20T13:27:59;97972.28;;;28.88;35.83
71915;BME280;60387;49.994;14.660;2023-05-20T13:30:32;97953.28;;;28.79;35.10
71915;BME280;60387;49.994;14.660;2023-05-20T13:33:05;97943.56;;;28.94;34.43
71915;BME280;60387;49.994;14.660;2023-05-20T13:35:38;97948.97;;;29.08;35.16